Vale — D5NC7 — position and weather

sailwx.info

Track history (hours):
 
Tides and Currents Weather Stations Pressure Air Temp Water Temp Dewpoint Dewpoint Depression Visibility Wind Speed Wind Dir Waves Ship Positions

Vale

Last reported at 2018-Jan-02 22:36 UTC. Time now 2018-Jul-23 09:35 UTC.
Position N 36°10' E 014°46'.
Warning: this ship's position is months out of date.

Length 150 m; draft 8.4 m.

Type: Tanker. MMSI: 636017874.

Date/timePositionNaut miles runAvg speedWind from/ knotsBaromVisibWave heightAir tempDewpointWater temp
2018-Jan-02 22:36N 36°10' E 014°46'112.1
2018-Jan-02 22:30N 36°10' E 014°45'612.0
2018-Jan-02 22:00N 36°12' E 014°37'612.1
2018-Jan-02 21:30N 36°14' E 014°30'612.3
2018-Jan-02 21:00N 36°15' E 014°23'612.3
2018-Jan-02 20:30N 36°17' E 014°16'612.4
2018-Jan-02 20:00N 36°19' E 014°09'612.3
2018-Jan-02 19:30N 36°22' E 014°02'612.2
2018-Jan-02 19:00N 36°24' E 013°54'612.3
2018-Jan-02 18:30N 36°26' E 013°47'612.4
2018-Jan-02 18:00N 36°28' E 013°40'612.6
2018-Jan-02 17:30N 36°30' E 013°33'26112.7
2018-Jan-01 21:01N 38°29' E 008°40'212.6
2018-Jan-01 20:53N 38°30' E 008°38'512.7
2018-Jan-01 20:30N 38°32' E 008°33'  
2017-Dec-30 10:30N 41°19' E 002°10'2 0.1
2017-Dec-29 12:09N 41°18' E 002°13'0 0.0
2017-Dec-29 10:27N 41°18' E 002°13'0 0.0
2017-Dec-29 09:57N 41°18' E 002°13'0 0.0
2017-Dec-29 04:21N 41°18' E 002°13'1 0.1
2017-Dec-28 20:09N 41°18' E 002°14'333 8.1
2017-Dec-27 03:11N 38°36' E 008°33'29510.9
2017-Dec-26 00:06N 36°03' E 013°50'113.1
2017-Dec-26 00:00N 36°02' E 013°51'712.8
2017-Dec-25 23:30N 35°58' E 013°58'612.8
2017-Dec-25 23:00N 35°55' E 014°04'612.6
2017-Dec-25 22:30N 35°51' E 014°11'612.5
2017-Dec-25 21:59N 35°47' E 014°17'612.4
2017-Dec-25 21:30N 35°44' E 014°24'1211.0
2017-Dec-25 20:26N 35°49' E 014°37'1 2.6
2017-Dec-25 20:00N 35°50' E 014°36'0 0.1
2017-Dec-25 19:29N 35°50' E 014°36'0 0.0
2017-Dec-25 18:53N 35°50' E 014°36'0 0.0
2017-Dec-25 18:17N 35°50' E 014°36'0 0.0
2017-Dec-25 17:59N 35°50' E 014°36'0 0.0
2017-Dec-25 17:23N 35°50' E 014°36'0 0.0
2017-Dec-25 16:47N 35°50' E 014°36'0 0.0
2017-Dec-25 16:29N 35°50' E 014°36'0 0.1
2017-Dec-25 15:59N 35°50' E 014°36'0 0.0
2017-Dec-25 15:29N 35°50' E 014°36'0 0.0
2017-Dec-25 11:35N 35°50' E 014°36'0 0.2
2017-Dec-25 11:05N 35°50' E 014°36'0 0.3
2017-Dec-25 11:00N 35°50' E 014°36'1 1.2
2017-Dec-25 10:30N 35°49' E 014°37'611.8
2017-Dec-25 10:00N 35°49' E 014°44'810.8
2017-Dec-25 09:15N 35°50' E 014°54'0 0.1
2017-Dec-25 06:33N 35°50' E 014°54'0 0.0
2017-Dec-25 06:24N 35°50' E 014°54'0 0.0
2017-Dec-25 06:00N 35°50' E 014°54'0 0.0
2017-Dec-25 05:30N 35°50' E 014°54'0 0.1
2017-Dec-25 05:00N 35°50' E 014°54'0 0.0
2017-Dec-25 04:09N 35°50' E 014°54'0 0.1
2017-Dec-25 04:00N 35°50' E 014°54'0 0.0
2017-Dec-25 03:24N 35°50' E 014°54'0 0.0
2017-Dec-25 03:00N 35°50' E 014°54'0 0.0
2017-Dec-25 01:12N 35°50' E 014°54'0 0.1
2017-Dec-25 00:54N 35°50' E 014°54'0 0.0
2017-Dec-25 00:06N 35°50' E 014°54'0 0.0
2017-Dec-24 23:39N 35°50' E 014°54'0 0.0
2017-Dec-24 18:06N 35°50' E 014°54'0 0.0
2017-Dec-24 08:34N 35°50' E 014°54'0 0.4
2017-Dec-24 08:30N 35°50' E 014°54'  
Track history (hours):
 
Tides and Currents Weather Stations Pressure Air Temp Water Temp Dewpoint Dewpoint Depression Visibility Wind Speed Wind Dir Waves Ship Positions

Vale

Last reported at 2018-Jan-02 22:36 UTC. Time now 2018-Jul-23 09:35 UTC.
Position N 36°10' E 014°46'.
Warning: this ship's position is months out of date.

Length 150 m; draft 8.4 m.

Type: Tanker. MMSI: 636017874.

Date/timePositionNaut miles runAvg speedWind from/ knotsBaromVisibWave heightAir tempDewpointWater temp
2018-Jan-02 22:36N 36°10' E 014°46'112.1
2018-Jan-02 22:30N 36°10' E 014°45'612.0
2018-Jan-02 22:00N 36°12' E 014°37'612.1
2018-Jan-02 21:30N 36°14' E 014°30'612.3
2018-Jan-02 21:00N 36°15' E 014°23'612.3
2018-Jan-02 20:30N 36°17' E 014°16'612.4
2018-Jan-02 20:00N 36°19' E 014°09'612.3
2018-Jan-02 19:30N 36°22' E 014°02'612.2
2018-Jan-02 19:00N 36°24' E 013°54'612.3
2018-Jan-02 18:30N 36°26' E 013°47'612.4
2018-Jan-02 18:00N 36°28' E 013°40'612.6
2018-Jan-02 17:30N 36°30' E 013°33'26112.7
2018-Jan-01 21:01N 38°29' E 008°40'212.6
2018-Jan-01 20:53N 38°30' E 008°38'512.7
2018-Jan-01 20:30N 38°32' E 008°33'  
2017-Dec-30 10:30N 41°19' E 002°10'2 0.1
2017-Dec-29 12:09N 41°18' E 002°13'0 0.0
2017-Dec-29 10:27N 41°18' E 002°13'0 0.0
2017-Dec-29 09:57N 41°18' E 002°13'0 0.0
2017-Dec-29 04:21N 41°18' E 002°13'1 0.1
2017-Dec-28 20:09N 41°18' E 002°14'333 8.1
2017-Dec-27 03:11N 38°36' E 008°33'29510.9
2017-Dec-26 00:06N 36°03' E 013°50'113.1
2017-Dec-26 00:00N 36°02' E 013°51'712.8
2017-Dec-25 23:30N 35°58' E 013°58'612.8
2017-Dec-25 23:00N 35°55' E 014°04'612.6
2017-Dec-25 22:30N 35°51' E 014°11'612.5
2017-Dec-25 21:59N 35°47' E 014°17'612.4
2017-Dec-25 21:30N 35°44' E 014°24'1211.0
2017-Dec-25 20:26N 35°49' E 014°37'1 2.6
2017-Dec-25 20:00N 35°50' E 014°36'0 0.1
2017-Dec-25 19:29N 35°50' E 014°36'0 0.0
2017-Dec-25 18:53N 35°50' E 014°36'0 0.0
2017-Dec-25 18:17N 35°50' E 014°36'0 0.0
2017-Dec-25 17:59N 35°50' E 014°36'0 0.0
2017-Dec-25 17:23N 35°50' E 014°36'0 0.0
2017-Dec-25 16:47N 35°50' E 014°36'0 0.0
2017-Dec-25 16:29N 35°50' E 014°36'0 0.1
2017-Dec-25 15:59N 35°50' E 014°36'0 0.0
2017-Dec-25 15:29N 35°50' E 014°36'0 0.0
2017-Dec-25 11:35N 35°50' E 014°36'0 0.2
2017-Dec-25 11:05N 35°50' E 014°36'0 0.3
2017-Dec-25 11:00N 35°50' E 014°36'1 1.2
2017-Dec-25 10:30N 35°49' E 014°37'611.8
2017-Dec-25 10:00N 35°49' E 014°44'810.8
2017-Dec-25 09:15N 35°50' E 014°54'0 0.1
2017-Dec-25 06:33N 35°50' E 014°54'0 0.0
2017-Dec-25 06:24N 35°50' E 014°54'0 0.0
2017-Dec-25 06:00N 35°50' E 014°54'0 0.0
2017-Dec-25 05:30N 35°50' E 014°54'0 0.1
2017-Dec-25 05:00N 35°50' E 014°54'0 0.0
2017-Dec-25 04:09N 35°50' E 014°54'0 0.1
2017-Dec-25 04:00N 35°50' E 014°54'0 0.0
2017-Dec-25 03:24N 35°50' E 014°54'0 0.0
2017-Dec-25 03:00N 35°50' E 014°54'0 0.0
2017-Dec-25 01:12N 35°50' E 014°54'0 0.1
2017-Dec-25 00:54N 35°50' E 014°54'0 0.0
2017-Dec-25 00:06N 35°50' E 014°54'0 0.0
2017-Dec-24 23:39N 35°50' E 014°54'0 0.0
2017-Dec-24 18:06N 35°50' E 014°54'0 0.0
2017-Dec-24 08:34N 35°50' E 014°54'0 0.4
2017-Dec-24 08:30N 35°50' E 014°54'  

Dump ship's entire track history